createdAt,value
2019-06-26T00:00:18.075Z,290.00
2019-06-26T00:01:18.374Z,289.01
2019-06-26T00:02:18.813Z,289.36
2019-06-26T00:03:19.255Z,289.31
2019-06-26T00:04:19.702Z,289.03
2019-06-26T00:05:20.129Z,290.04
2019-06-26T00:06:20.613Z,289.05
2019-06-26T00:07:20.985Z,289.07
2019-06-26T00:08:21.400Z,289.38
2019-06-26T00:09:21.822Z,290.50
2019-06-26T00:10:22.316Z,289.94
2019-06-26T00:11:22.686Z,289.39
2019-06-26T00:12:23.153Z,288.94
2019-06-26T00:13:26.109Z,290.16
2019-06-26T00:14:24.040Z,288.89
2019-06-26T00:15:24.527Z,290.05
2019-06-26T00:16:24.853Z,289.25
2019-06-26T00:17:25.313Z,289.16
2019-06-26T00:18:25.970Z,289.11
2019-06-26T00:19:26.179Z,288.74
2019-06-26T00:20:26.648Z,289.44
2019-06-26T00:21:27.048Z,289.35
2019-06-26T00:22:27.549Z,289.82
2019-06-26T00:23:27.882Z,288.73
2019-06-26T00:24:28.349Z,289.09
2019-06-26T00:25:28.819Z,289.35
2019-06-26T00:26:29.217Z,290.25
2019-06-26T00:27:29.667Z,289.77
2019-06-26T00:28:30.080Z,290.28
2019-06-26T00:29:30.501Z,290.76
2019-06-26T00:30:31.016Z,290.13
2019-06-26T00:31:31.473Z,290.17
2019-06-26T00:32:31.832Z,290.02
2019-06-26T00:33:32.227Z,289.58
2019-06-26T00:34:32.672Z,290.38
2019-06-26T00:35:33.146Z,289.97
2019-06-26T00:36:33.546Z,290.29
2019-06-26T00:37:34.001Z,290.19
2019-06-26T00:38:34.420Z,290.43
2019-06-26T00:39:34.993Z,290.04
2019-06-26T00:40:35.321Z,289.36
2019-06-26T00:41:35.711Z,290.33
2019-06-26T00:42:36.165Z,290.21
2019-06-26T00:43:42.308Z,289.69
2019-06-26T00:44:38.018Z,289.53
2019-06-26T00:45:37.480Z,290.13
2019-06-26T00:46:37.892Z,289.93
2019-06-26T00:47:38.395Z,288.88
2019-06-26T00:48:38.748Z,288.93
2019-06-26T00:49:39.182Z,289.49
2019-06-26T00:50:39.630Z,288.67
2019-06-26T00:51:40.046Z,289.08
2019-06-26T00:52:40.507Z,288.29
2019-06-26T00:53:40.926Z,288.96
2019-06-26T00:54:41.363Z,288.99
2019-06-26T00:55:41.941Z,288.88
2019-06-26T00:56:42.199Z,289.34
2019-06-26T00:57:42.670Z,290.32
2019-06-26T00:58:43.100Z,290.08
2019-06-26T00:59:43.521Z,290.06
2019-06-26T01:00:44.060Z,289.85
2019-06-26T01:01:44.398Z,289.19
2019-06-26T01:02:44.875Z,289.36
2019-06-26T01:03:45.314Z,289.82
2019-06-26T01:04:45.668Z,289.94
2019-06-26T01:05:46.150Z,290.15
2019-06-26T01:06:46.550Z,289.58
2019-06-26T01:07:47.005Z,289.40
2019-06-26T01:08:47.404Z,289.24
2019-06-26T01:09:47.855Z,289.28
2019-06-26T01:10:48.325Z,289.39
2019-06-26T01:11:48.740Z,288.68
2019-06-26T01:12:49.225Z,289.42
2019-06-26T01:13:57.757Z,289.17
2019-06-26T01:14:51.037Z,290.37
2019-06-26T01:15:50.493Z,290.91
2019-06-26T01:16:50.892Z,289.62
2019-06-26T01:17:51.327Z,289.79
2019-06-26T01:18:51.775Z,289.76
2019-06-26T01:19:52.208Z,290.93
2019-06-26T01:20:52.806Z,289.76
2019-06-26T01:21:53.109Z,288.67
2019-06-26T01:22:53.545Z,289.17
2019-06-26T01:23:53.995Z,289.48
2019-06-26T01:24:54.400Z,289.71
2019-06-26T01:25:54.896Z,289.84
2019-06-26T01:26:55.290Z,289.26
2019-06-26T01:27:55.720Z,289.51
2019-06-26T01:28:56.272Z,289.52
2019-06-26T01:29:56.574Z,289.83
2019-06-26T01:30:57.050Z,289.97
2019-06-26T01:31:57.453Z,290.12
2019-06-26T01:32:57.886Z,289.73
2019-06-26T01:33:58.361Z,290.39
2019-06-26T01:34:58.755Z,290.08
2019-06-26T01:35:59.210Z,290.02
2019-06-26T01:36:59.682Z,289.34
2019-06-26T01:38:00.056Z,290.20
2019-06-26T01:39:00.513Z,289.38
2019-06-26T01:40:00.931Z,289.58
2019-06-26T01:41:01.420Z,290.15
2019-06-26T01:42:01.779Z,289.76
2019-06-26T01:43:02.320Z,290.17
2019-06-26T01:44:13.668Z,290.13
2019-06-26T01:45:04.148Z,290.36
2019-06-26T01:46:03.539Z,290.41
2019-06-26T01:47:03.931Z,290.39
2019-06-26T01:48:04.368Z,290.85
2019-06-26T01:49:04.837Z,290.52
2019-06-26T01:50:05.265Z,290.17
2019-06-26T01:51:05.728Z,291.05
2019-06-26T01:52:06.122Z,289.85
2019-06-26T01:53:06.591Z,290.02
2019-06-26T01:54:07.081Z,290.05
2019-06-26T01:55:07.436Z,290.19
2019-06-26T01:56:08.094Z,289.90
2019-06-26T01:57:08.522Z,291.19
2019-06-26T01:58:08.738Z,290.45
2019-06-26T01:59:09.178Z,290.27
2019-06-26T02:00:09.681Z,290.29
2019-06-26T02:01:10.105Z,289.58
2019-06-26T02:02:10.613Z,289.93
2019-06-26T02:03:10.923Z,290.12
2019-06-26T02:04:11.357Z,291.41
2019-06-26T02:05:11.790Z,290.70
2019-06-26T02:06:12.282Z,290.76
2019-06-26T02:07:12.651Z,291.10
2019-06-26T02:08:13.088Z,290.46
2019-06-26T02:09:13.538Z,290.61
2019-06-26T02:10:14.077Z,291.18
2019-06-26T02:11:14.430Z,290.72
2019-06-26T02:12:14.831Z,290.36
2019-06-26T02:13:15.266Z,290.80
2019-06-26T02:14:29.614Z,290.46
2019-06-26T02:15:17.116Z,290.80
2019-06-26T02:16:16.581Z,290.35
2019-06-26T02:17:17.000Z,293.18
2019-06-26T02:18:17.498Z,290.62
2019-06-26T02:19:17.877Z,291.08
2019-06-26T02:20:18.272Z,290.71
2019-06-26T02:21:18.743Z,291.06
2019-06-26T02:22:19.307Z,291.90
2019-06-26T02:23:19.636Z,290.99
2019-06-26T02:24:20.076Z,291.23
2019-06-26T02:25:20.490Z,290.72
2019-06-26T02:26:20.985Z,291.02
2019-06-26T02:27:21.358Z,290.94
2019-06-26T02:28:21.816Z,290.70
2019-06-26T02:29:22.330Z,291.11
2019-06-26T02:30:22.676Z,290.03
2019-06-26T02:31:23.140Z,290.33
2019-06-26T02:32:23.572Z,290.56
2019-06-26T02:33:23.973Z,290.94
2019-06-26T02:34:24.480Z,291.85
2019-06-26T02:35:24.876Z,293.05
2019-06-26T02:36:25.312Z,293.99
2019-06-26T02:37:25.721Z,292.54
2019-06-26T02:38:26.146Z,292.13
2019-06-26T02:39:26.608Z,292.93
2019-06-26T02:40:27.024Z,292.25
2019-06-26T02:41:27.478Z,292.60
2019-06-26T02:42:27.946Z,291.37
2019-06-26T02:43:28.425Z,290.98
2019-06-26T02:44:28.811Z,291.10
2019-06-26T02:45:29.214Z,292.61
2019-06-26T02:46:29.671Z,295.10
2019-06-26T02:47:30.117Z,292.26
2019-06-26T02:48:30.501Z,293.45
2019-06-26T02:49:30.955Z,293.12
2019-06-26T02:50:31.378Z,294.32
2019-06-26T02:51:32.023Z,292.75
2019-06-26T02:52:32.265Z,293.64
2019-06-26T02:53:32.677Z,292.73
2019-06-26T02:54:33.144Z,291.32
2019-06-26T02:55:33.583Z,293.99
2019-06-26T02:56:34.031Z,293.80
2019-06-26T02:57:34.468Z,295.22
2019-06-26T02:58:34.891Z,294.29
2019-06-26T02:59:35.372Z,294.49
2019-06-26T03:00:35.734Z,293.09
2019-06-26T03:01:36.195Z,292.89
2019-06-26T03:02:36.647Z,291.55
2019-06-26T03:03:37.041Z,293.06
2019-06-26T03:04:37.497Z,291.83
2019-06-26T03:05:37.893Z,292.50
2019-06-26T03:06:38.365Z,292.28
2019-06-26T03:07:38.865Z,291.92
2019-06-26T03:08:39.206Z,291.54
2019-06-26T03:09:39.758Z,291.43
2019-06-26T03:10:40.081Z,291.34
2019-06-26T03:11:40.516Z,291.55
2019-06-26T03:12:40.964Z,292.81
2019-06-26T03:13:41.390Z,290.80
2019-06-26T03:14:41.846Z,292.02
2019-06-26T03:15:42.308Z,292.91
2019-06-26T03:16:42.709Z,294.73
2019-06-26T03:17:54.111Z,294.63
2019-06-26T03:18:44.574Z,293.81
2019-06-26T03:19:44.026Z,293.36
2019-06-26T03:20:44.435Z,294.33
2019-06-26T03:21:44.908Z,293.97
2019-06-26T03:22:45.298Z,293.05
2019-06-26T03:23:45.746Z,294.06
2019-06-26T03:24:46.295Z,294.19
2019-06-26T03:25:46.609Z,293.62
2019-06-26T03:26:47.073Z,293.74
2019-06-26T03:27:47.483Z,293.06
2019-06-26T03:28:47.916Z,294.05
2019-06-26T03:29:48.369Z,291.49
2019-06-26T03:30:48.818Z,293.13
2019-06-26T03:31:49.277Z,292.86
2019-06-26T03:32:49.828Z,293.16
2019-06-26T03:33:50.117Z,296.70
2019-06-26T03:34:50.551Z,294.59
2019-06-26T03:35:51.231Z,296.38
2019-06-26T03:36:51.438Z,295.40
2019-06-26T03:37:51.880Z,295.78
2019-06-26T03:38:52.280Z,295.58
2019-06-26T03:39:52.719Z,296.00
2019-06-26T03:40:53.240Z,295.59
2019-06-26T03:41:53.618Z,293.70
2019-06-26T03:42:54.041Z,294.64
2019-06-26T03:43:54.459Z,295.94
2019-06-26T03:44:54.904Z,295.55
2019-06-26T03:45:55.338Z,296.68
2019-06-26T03:46:55.778Z,296.17
2019-06-26T03:47:56.211Z,294.19
2019-06-26T03:48:56.651Z,295.33
2019-06-26T03:49:57.028Z,295.41
2019-06-26T03:50:57.482Z,295.54
2019-06-26T03:51:57.954Z,295.23
2019-06-26T03:52:58.374Z,297.04
2019-06-26T03:53:58.784Z,294.13
2019-06-26T03:54:59.227Z,296.74
2019-06-26T03:55:59.665Z,293.95
2019-06-26T03:57:00.170Z,295.21
2019-06-26T03:58:00.548Z,296.64
2019-06-26T03:59:00.975Z,295.13
2019-06-26T04:00:01.907Z,298.72
2019-06-26T04:01:01.887Z,297.41
2019-06-26T04:02:02.311Z,302.16
2019-06-26T04:03:02.716Z,299.96
2019-06-26T04:04:03.148Z,301.74
2019-06-26T04:05:03.603Z,301.06
2019-06-26T04:06:04.132Z,297.27
2019-06-26T04:07:04.452Z,295.12
2019-06-26T04:08:04.892Z,295.23
2019-06-26T04:09:05.322Z,296.28
2019-06-26T04:10:05.771Z,293.84
2019-06-26T04:11:06.217Z,293.45
2019-06-26T04:12:06.643Z,293.61
2019-06-26T04:13:07.085Z,291.26
2019-06-26T04:14:07.566Z,295.18
2019-06-26T04:15:07.934Z,294.94
2019-06-26T04:16:08.384Z,295.68
2019-06-26T04:17:08.810Z,294.59
2019-06-26T04:18:09.232Z,295.26
2019-06-26T04:19:09.681Z,296.01
2019-06-26T04:20:10.111Z,299.41
2019-06-26T04:21:10.568Z,297.36
2019-06-26T04:22:11.115Z,298.74
2019-06-26T04:23:11.415Z,297.25
2019-06-26T04:24:11.817Z,299.86
2019-06-26T04:25:12.268Z,299.95
2019-06-26T04:26:12.720Z,296.21
2019-06-26T04:27:13.138Z,297.15
2019-06-26T04:28:13.571Z,298.70
2019-06-26T04:29:14.006Z,300.62
2019-06-26T04:30:14.476Z,299.69
2019-06-26T04:31:14.880Z,301.00
2019-06-26T04:32:15.318Z,295.04
2019-06-26T04:33:15.733Z,293.63
2019-06-26T04:34:16.183Z,302.15
2019-06-26T04:35:16.618Z,301.97
2019-06-26T04:36:17.056Z,299.70
2019-06-26T04:37:17.506Z,302.33
2019-06-26T04:38:17.997Z,300.95
2019-06-26T04:39:18.349Z,299.55
2019-06-26T04:40:20.326Z,300.64
2019-06-26T04:41:19.230Z,302.81
2019-06-26T04:42:19.673Z,308.51
2019-06-26T04:43:20.113Z,305.84
2019-06-26T04:44:20.566Z,302.90
2019-06-26T04:45:20.978Z,306.35
2019-06-26T04:46:21.453Z,306.27
2019-06-26T04:47:21.900Z,302.72
2019-06-26T04:48:22.279Z,302.67
2019-06-26T04:49:22.733Z,300.50
2019-06-26T04:50:23.147Z,302.65
2019-06-26T04:51:23.601Z,300.11
2019-06-26T04:52:24.034Z,302.73
2019-06-26T04:53:24.439Z,299.81
2019-06-26T04:54:24.938Z,306.61
2019-06-26T04:55:25.469Z,302.37
2019-06-26T04:56:25.765Z,304.96
2019-06-26T04:57:26.194Z,300.99
2019-06-26T04:58:26.619Z,300.77
2019-06-26T04:59:27.082Z,301.83
2019-06-26T05:00:27.504Z,300.98
2019-06-26T05:01:27.959Z,301.42
2019-06-26T05:02:28.410Z,298.83
2019-06-26T05:03:28.941Z,298.62
2019-06-26T05:04:29.253Z,298.82
2019-06-26T05:05:38.898Z,299.28
2019-06-26T05:06:31.126Z,298.36
2019-06-26T05:07:30.554Z,300.34
2019-06-26T05:08:30.974Z,299.89
2019-06-26T05:09:31.406Z,298.17
2019-06-26T05:10:31.835Z,295.28
2019-06-26T05:11:32.381Z,293.96
2019-06-26T05:12:33.517Z,293.83
2019-06-26T05:13:33.136Z,294.60
2019-06-26T05:14:33.810Z,294.44
2019-06-26T05:15:33.988Z,295.15
2019-06-26T05:16:34.452Z,296.96
2019-06-26T05:17:34.911Z,309.46
2019-06-26T05:18:35.309Z,303.85
2019-06-26T05:19:35.793Z,297.55
2019-06-26T05:20:36.137Z,298.60
2019-06-26T05:21:36.613Z,294.66
2019-06-26T05:22:37.060Z,294.30
2019-06-26T05:23:37.484Z,294.72
2019-06-26T05:24:37.940Z,295.28
2019-06-26T05:25:38.364Z,291.39
2019-06-26T05:26:38.821Z,294.69
2019-06-26T05:27:39.274Z,295.05
2019-06-26T05:28:39.733Z,296.58
2019-06-26T05:29:40.108Z,296.69
2019-06-26T05:30:40.533Z,297.05
2019-06-26T05:31:40.939Z,297.38
2019-06-26T05:32:41.402Z,296.03
2019-06-26T05:33:41.838Z,296.07
2019-06-26T05:34:42.290Z,295.70
2019-06-26T05:35:42.719Z,296.10
2019-06-26T05:36:43.260Z,295.05
2019-06-26T05:37:43.602Z,294.19
2019-06-26T05:38:44.576Z,298.37
2019-06-26T05:39:44.489Z,297.61
2019-06-26T05:40:44.908Z,292.77
2019-06-26T05:41:45.344Z,298.12
2019-06-26T05:42:45.806Z,296.75
2019-06-26T05:43:46.233Z,298.98
2019-06-26T05:44:46.840Z,295.15
2019-06-26T05:45:47.102Z,295.50
2019-06-26T05:46:47.540Z,295.33
2019-06-26T05:47:47.995Z,295.37
2019-06-26T05:48:48.409Z,295.39
2019-06-26T05:49:48.881Z,295.16
2019-06-26T05:50:49.295Z,294.50
2019-06-26T05:51:49.789Z,295.65
2019-06-26T05:52:50.234Z,295.03
2019-06-26T05:53:50.568Z,295.66
2019-06-26T05:54:51.048Z,296.56
2019-06-26T05:55:51.456Z,294.61
2019-06-26T05:56:51.957Z,294.20
2019-06-26T05:57:52.411Z,297.82
2019-06-26T05:58:52.762Z,293.81
2019-06-26T05:59:53.213Z,293.48
2019-06-26T06:00:53.683Z,296.33
2019-06-26T06:01:54.067Z,296.91
2019-06-26T06:02:54.509Z,293.91
2019-06-26T06:03:54.926Z,296.76
2019-06-26T06:04:55.376Z,298.25
2019-06-26T06:05:55.775Z,298.84
2019-06-26T06:06:56.253Z,296.25
2019-06-26T06:07:56.686Z,306.80
2019-06-26T06:08:57.187Z,301.63
2019-06-26T06:09:57.616Z,294.73
2019-06-26T06:10:58.256Z,295.18
2019-06-26T06:11:58.445Z,295.55
2019-06-26T06:12:58.881Z,293.49
2019-06-26T06:13:59.307Z,295.15
2019-06-26T06:14:59.742Z,294.54
2019-06-26T06:16:00.167Z,292.87
2019-06-26T06:17:00.631Z,293.06
2019-06-26T06:18:01.180Z,297.45
2019-06-26T06:19:01.469Z,297.75
2019-06-26T06:20:02.101Z,297.49
2019-06-26T06:21:02.337Z,298.85
2019-06-26T06:22:02.776Z,299.77
2019-06-26T06:23:03.223Z,299.56
2019-06-26T06:24:03.656Z,294.72
2019-06-26T06:25:04.141Z,295.97
2019-06-26T06:26:04.658Z,295.76
2019-06-26T06:27:04.981Z,293.42
2019-06-26T06:28:05.410Z,293.48
2019-06-26T06:29:05.831Z,296.86
2019-06-26T06:30:06.286Z,298.10
2019-06-26T06:31:06.705Z,296.83
2019-06-26T06:32:07.159Z,296.42
2019-06-26T06:33:07.575Z,296.45
2019-06-26T06:34:08.092Z,298.44
2019-06-26T06:35:08.443Z,298.70
2019-06-26T06:36:09.634Z,294.68
2019-06-26T06:37:09.319Z,297.69
2019-06-26T06:38:09.758Z,297.08
2019-06-26T06:39:10.159Z,296.39
2019-06-26T06:40:10.605Z,292.51
2019-06-26T06:41:11.039Z,294.60
2019-06-26T06:42:11.552Z,296.68
2019-06-26T06:43:11.910Z,299.84
2019-06-26T06:44:12.333Z,297.14
2019-06-26T06:45:12.756Z,296.13
2019-06-26T06:46:13.227Z,294.88
2019-06-26T06:47:13.673Z,290.54
2019-06-26T06:48:14.111Z,291.97
2019-06-26T06:49:14.528Z,291.29
2019-06-26T06:50:15.221Z,292.79
2019-06-26T06:51:15.391Z,295.60
2019-06-26T06:52:16.595Z,295.60
2019-06-26T06:53:16.277Z,300.99
2019-06-26T06:54:16.697Z,299.26
2019-06-26T06:55:17.135Z,292.97
2019-06-26T06:56:17.580Z,293.84
2019-06-26T06:57:18.017Z,293.89
2019-06-26T06:58:18.495Z,291.50
2019-06-26T06:59:18.964Z,295.97
2019-06-26T07:00:19.317Z,295.40
2019-06-26T07:01:19.753Z,295.56
2019-06-26T07:02:20.585Z,294.54
2019-06-26T07:03:20.672Z,294.53
2019-06-26T07:04:21.089Z,295.84
2019-06-26T07:05:21.522Z,294.98
2019-06-26T07:06:21.982Z,295.81
2019-06-26T07:07:22.508Z,296.25
2019-06-26T07:08:22.841Z,290.51
2019-06-26T07:09:23.261Z,291.02
2019-06-26T07:10:23.695Z,293.69
2019-06-26T07:11:24.148Z,294.91
2019-06-26T07:12:24.576Z,296.29
2019-06-26T07:13:25.025Z,295.81
2019-06-26T07:14:25.452Z,295.56
2019-06-26T07:15:25.961Z,292.27
2019-06-26T07:16:26.324Z,294.97
2019-06-26T07:17:26.748Z,294.13
2019-06-26T07:18:27.178Z,292.52
2019-06-26T07:19:27.613Z,291.95
2019-06-26T07:20:28.045Z,290.88
2019-06-26T07:21:28.497Z,290.86
2019-06-26T07:22:28.931Z,289.73
2019-06-26T07:23:29.404Z,290.38
2019-06-26T07:24:29.758Z,290.77
2019-06-26T07:25:30.212Z,290.30
2019-06-26T07:26:30.659Z,290.14
2019-06-26T07:27:31.095Z,289.13
2019-06-26T07:28:31.539Z,290.47
2019-06-26T07:29:31.967Z,288.92
2019-06-26T07:30:32.357Z,292.02
2019-06-26T07:31:32.892Z,291.17
2019-06-26T07:32:33.249Z,289.58
2019-06-26T07:33:33.717Z,293.88
2019-06-26T07:34:34.113Z,295.47
2019-06-26T07:35:34.579Z,286.68
2019-06-26T07:36:35.000Z,288.67
2019-06-26T07:37:35.449Z,290.10
2019-06-26T07:38:35.883Z,289.15
2019-06-26T07:39:36.340Z,293.75
2019-06-26T07:40:36.795Z,294.62
2019-06-26T07:41:37.187Z,290.68
2019-06-26T07:42:37.623Z,290.18
2019-06-26T07:43:38.056Z,289.73
2019-06-26T07:44:38.472Z,288.42
2019-06-26T07:45:38.916Z,291.00
2019-06-26T07:46:39.349Z,287.67
2019-06-26T07:47:43.504Z,289.09
2019-06-26T07:48:40.362Z,288.85
2019-06-26T07:49:40.651Z,288.97
2019-06-26T07:50:41.076Z,288.12
2019-06-26T07:51:41.506Z,288.40
2019-06-26T07:52:41.956Z,288.97
2019-06-26T07:53:42.402Z,288.25
2019-06-26T07:54:42.829Z,286.41
2019-06-26T07:55:43.616Z,284.40
2019-06-26T07:56:43.807Z,285.45
2019-06-26T07:57:44.138Z,285.46
2019-06-26T07:58:44.597Z,287.98
2019-06-26T07:59:45.034Z,285.95
2019-06-26T08:00:45.486Z,285.97
2019-06-26T08:01:45.917Z,296.09
2019-06-26T08:02:46.334Z,290.28
2019-06-26T08:03:46.786Z,289.27
2019-06-26T08:04:47.254Z,285.86
2019-06-26T08:05:47.635Z,288.77
2019-06-26T08:06:48.091Z,287.50
2019-06-26T08:07:48.522Z,288.31
2019-06-26T08:08:48.926Z,292.06
2019-06-26T08:09:49.389Z,293.13
2019-06-26T08:10:49.829Z,289.37
2019-06-26T08:11:50.277Z,291.06
2019-06-26T08:12:50.842Z,287.64
2019-06-26T08:13:51.149Z,285.38
2019-06-26T08:14:51.545Z,284.15
2019-06-26T08:15:51.986Z,286.96
2019-06-26T08:16:52.473Z,282.62
2019-06-26T08:18:00.691Z,282.48
2019-06-26T08:18:54.316Z,282.86
2019-06-26T08:19:53.765Z,284.06
2019-06-26T08:21:10.842Z,284.98
2019-06-26T08:21:55.684Z,285.19
2019-06-26T08:22:55.063Z,286.20
2019-06-26T08:23:55.473Z,284.00
2019-06-26T08:24:55.936Z,285.23
2019-06-26T08:25:56.335Z,286.76
2019-06-26T08:26:56.790Z,288.12
2019-06-26T08:27:57.241Z,283.84
2019-06-26T08:28:57.672Z,282.50
2019-06-26T08:29:58.236Z,284.05
2019-06-26T08:30:58.509Z,284.00
2019-06-26T08:31:59.205Z,286.08
2019-06-26T08:32:59.417Z,284.93
2019-06-26T08:33:59.822Z,284.90
2019-06-26T08:35:00.322Z,282.17
2019-06-26T08:36:00.694Z,283.87
2019-06-26T08:37:01.152Z,283.41
2019-06-26T08:38:09.767Z,280.67
2019-06-26T08:39:02.998Z,281.63
2019-06-26T08:40:02.448Z,281.04
2019-06-26T08:41:02.865Z,280.28
2019-06-26T08:42:03.328Z,281.81
2019-06-26T08:43:03.732Z,281.79
2019-06-26T08:44:04.179Z,282.64
2019-06-26T08:45:04.664Z,280.49
2019-06-26T08:46:05.102Z,280.40
2019-06-26T08:47:05.475Z,279.82
2019-06-26T08:48:17.329Z,282.70
2019-06-26T08:49:20.949Z,281.62
2019-06-26T08:50:07.783Z,284.75
2019-06-26T08:51:07.216Z,284.20
2019-06-26T08:52:07.654Z,285.79
2019-06-26T08:53:08.088Z,283.08
2019-06-26T08:54:08.552Z,284.27
2019-06-26T08:55:08.940Z,285.86
2019-06-26T08:56:09.372Z,281.75
2019-06-26T08:57:09.812Z,281.82
2019-06-26T08:58:10.269Z,280.98
2019-06-26T08:59:10.671Z,278.75
2019-06-26T09:00:11.201Z,279.23
2019-06-26T09:01:11.553Z,288.23
2019-06-26T09:02:12.028Z,280.19
2019-06-26T09:03:12.529Z,281.33
2019-06-26T09:04:12.878Z,277.42
2019-06-26T09:05:13.318Z,279.00
2019-06-26T09:06:13.747Z,284.37
2019-06-26T09:07:14.198Z,281.19
2019-06-26T09:08:14.775Z,283.80
2019-06-26T09:09:15.087Z,285.16
2019-06-26T09:10:15.553Z,281.83
2019-06-26T09:11:16.073Z,278.14
2019-06-26T09:12:16.391Z,283.16
2019-06-26T09:13:16.875Z,283.51
2019-06-26T09:14:17.265Z,283.06
2019-06-26T09:15:17.716Z,280.26
2019-06-26T09:16:18.126Z,282.97
2019-06-26T09:17:18.562Z,283.34
2019-06-26T09:18:31.096Z,286.16
2019-06-26T09:19:20.615Z,281.42
2019-06-26T09:20:19.924Z,281.21
2019-06-26T09:21:20.317Z,287.94
2019-06-26T09:22:20.769Z,281.57
2019-06-26T09:23:21.244Z,282.90
2019-06-26T09:24:21.637Z,279.40
2019-06-26T09:25:22.665Z,277.99
2019-06-26T09:26:22.508Z,281.53
2019-06-26T09:27:22.983Z,285.87
2019-06-26T09:28:23.395Z,283.39
2019-06-26T09:29:24.200Z,284.91
2019-06-26T09:30:24.258Z,284.25
2019-06-26T09:31:24.667Z,282.96
2019-06-26T09:32:25.090Z,279.77
2019-06-26T09:33:25.559Z,280.64
2019-06-26T09:34:25.976Z,279.10
2019-06-26T09:35:26.534Z,276.54
2019-06-26T09:36:26.822Z,279.29
2019-06-26T09:37:27.265Z,277.04
2019-06-26T09:38:27.741Z,275.84
2019-06-26T09:39:28.115Z,277.95
2019-06-26T09:40:31.595Z,283.99
2019-06-26T09:41:29.052Z,279.99
2019-06-26T09:42:29.447Z,284.47
2019-06-26T09:43:29.955Z,281.84
2019-06-26T09:44:30.371Z,279.40
2019-06-26T09:45:30.769Z,280.77
2019-06-26T09:46:31.181Z,279.73
2019-06-26T09:47:31.607Z,284.60
2019-06-26T09:48:32.100Z,283.09
2019-06-26T09:49:32.536Z,276.89
2019-06-26T09:50:32.925Z,278.03
2019-06-26T09:51:33.381Z,282.61
2019-06-26T09:52:33.917Z,301.32
2019-06-26T09:53:45.939Z,279.58
2019-06-26T09:54:35.649Z,284.16
2019-06-26T09:55:35.114Z,280.86
2019-06-26T09:56:35.546Z,283.73
2019-06-26T09:57:36.063Z,281.38
2019-06-26T09:58:36.439Z,275.51
2019-06-26T09:59:36.852Z,283.48
2019-06-26T10:00:37.431Z,278.67
2019-06-26T10:01:37.734Z,278.99
2019-06-26T10:02:38.195Z,279.54
2019-06-26T10:03:38.609Z,281.72
2019-06-26T10:04:39.028Z,277.02
2019-06-26T10:05:39.450Z,281.24
2019-06-26T10:06:39.883Z,283.50
2019-06-26T10:07:40.357Z,286.21
2019-06-26T10:08:40.878Z,281.68
2019-06-26T10:09:41.245Z,282.47
2019-06-26T10:10:41.623Z,278.55
2019-06-26T10:11:42.134Z,280.75
2019-06-26T10:12:42.539Z,280.06
2019-06-26T10:13:42.965Z,280.55
2019-06-26T10:14:47.838Z,278.95
2019-06-26T10:15:43.825Z,282.46
2019-06-26T10:16:44.326Z,279.46
2019-06-26T10:17:44.692Z,282.12
2019-06-26T10:18:45.149Z,281.60
2019-06-26T10:19:45.568Z,281.59
2019-06-26T10:20:46.005Z,279.48
2019-06-26T10:21:46.467Z,277.74
2019-06-26T10:22:46.865Z,279.42
2019-06-26T10:23:47.309Z,280.07
2019-06-26T10:24:47.814Z,277.48
2019-06-26T10:25:48.203Z,277.37
2019-06-26T10:26:48.669Z,275.62
2019-06-26T10:27:49.069Z,281.66
2019-06-26T10:28:49.529Z,280.03
2019-06-26T10:29:49.922Z,277.70
2019-06-26T10:30:50.417Z,280.58
2019-06-26T10:31:50.851Z,280.56
2019-06-26T10:32:51.255Z,284.93
2019-06-26T10:33:51.805Z,281.87
2019-06-26T10:34:52.172Z,278.97
2019-06-26T10:35:52.544Z,277.48
2019-06-26T10:36:53.026Z,279.42
2019-06-26T10:37:53.423Z,279.26
2019-06-26T10:38:53.868Z,281.12
2019-06-26T10:39:54.284Z,283.23
2019-06-26T10:40:54.711Z,277.41
2019-06-26T10:41:55.393Z,280.45
2019-06-26T10:42:55.591Z,277.51
2019-06-26T10:43:56.044Z,281.13
2019-06-26T10:44:56.463Z,279.07
2019-06-26T10:45:56.905Z,279.82
2019-06-26T10:46:57.399Z,284.31
2019-06-26T10:47:57.793Z,280.77
2019-06-26T10:48:58.243Z,278.90
2019-06-26T10:49:58.751Z,280.15
2019-06-26T10:50:59.228Z,279.34
2019-06-26T10:51:59.570Z,277.84
2019-06-26T10:52:59.960Z,276.83
2019-06-26T10:54:00.395Z,277.55
2019-06-26T10:55:00.842Z,280.91
2019-06-26T10:56:01.278Z,280.81
2019-06-26T10:57:01.723Z,280.95
2019-06-26T10:58:02.187Z,280.37
2019-06-26T10:59:02.574Z,279.07
2019-06-26T11:00:02.994Z,280.09
2019-06-26T11:01:03.445Z,278.48
2019-06-26T11:02:03.881Z,279.36
2019-06-26T11:03:04.284Z,280.92
2019-06-26T11:04:04.754Z,276.97
2019-06-26T11:05:05.195Z,277.16
2019-06-26T11:06:05.631Z,275.12
2019-06-26T11:07:06.090Z,280.49
2019-06-26T11:08:06.495Z,282.14
2019-06-26T11:09:06.953Z,282.01
2019-06-26T11:10:07.422Z,277.53
2019-06-26T11:11:07.834Z,277.83
2019-06-26T11:12:08.295Z,281.23
2019-06-26T11:13:08.705Z,276.41
2019-06-26T11:14:09.158Z,276.01
2019-06-26T11:15:09.687Z,278.31
2019-06-26T11:16:10.047Z,272.01
2019-06-26T11:17:10.496Z,278.22
2019-06-26T11:18:10.914Z,280.92
2019-06-26T11:19:11.344Z,276.39
2019-06-26T11:20:11.815Z,277.02
2019-06-26T11:21:12.251Z,279.70
2019-06-26T11:22:12.722Z,283.57
2019-06-26T11:23:13.264Z,277.79
2019-06-26T11:24:13.543Z,277.24
2019-06-26T11:25:14.028Z,281.47
2019-06-26T11:26:14.418Z,281.22
2019-06-26T11:27:14.869Z,280.12
2019-06-26T11:28:15.288Z,280.21
2019-06-26T11:29:15.733Z,279.92
2019-06-26T11:30:16.186Z,274.58
2019-06-26T11:31:16.736Z,280.99
2019-06-26T11:32:17.061Z,274.79
2019-06-26T11:33:17.485Z,278.08
2019-06-26T11:34:17.939Z,281.62
2019-06-26T11:35:18.353Z,278.52
2019-06-26T11:36:18.930Z,283.36
2019-06-26T11:37:22.645Z,280.90
2019-06-26T11:38:19.676Z,281.10
2019-06-26T11:39:20.182Z,272.38
2019-06-26T11:40:20.545Z,279.55
2019-06-26T11:41:20.959Z,278.20
2019-06-26T11:42:21.431Z,274.52
2019-06-26T11:43:21.860Z,281.70
2019-06-26T11:44:22.314Z,280.55
2019-06-26T11:45:22.751Z,278.43
2019-06-26T11:46:23.164Z,276.65
2019-06-26T11:47:23.659Z,286.50
2019-06-26T11:48:24.021Z,285.75
2019-06-26T11:49:24.470Z,279.26
2019-06-26T11:50:25.162Z,282.72
2019-06-26T11:51:25.338Z,279.67
2019-06-26T11:52:25.793Z,281.23
2019-06-26T11:53:26.195Z,278.38
2019-06-26T11:54:26.667Z,276.18
2019-06-26T11:55:27.138Z,277.33
2019-06-26T11:56:27.608Z,279.80
2019-06-26T11:57:28.027Z,272.21
2019-06-26T11:58:28.506Z,275.15
2019-06-26T11:59:29.077Z,273.02
2019-06-26T12:00:29.290Z,277.25
2019-06-26T12:12:02.538Z,271.63
2019-06-26T12:12:37.895Z,276.51
2019-06-26T12:13:38.313Z,272.63
2019-06-26T12:17:47.464Z,277.12
2019-06-26T12:18:09.866Z,271.69
2019-06-26T12:19:10.395Z,277.65
2019-06-26T12:20:18.370Z,276.04
2019-06-26T12:21:12.219Z,275.70
2019-06-26T12:22:11.716Z,274.62
2019-06-26T12:23:12.072Z,277.44
2019-06-26T12:24:12.538Z,278.35
2019-06-26T12:25:12.994Z,282.45
2019-06-26T12:26:13.408Z,274.26
2019-06-26T12:27:13.813Z,280.12
2019-06-26T12:28:14.296Z,277.64
2019-06-26T12:29:14.728Z,276.97
2019-06-26T12:30:15.446Z,273.59
2019-06-26T12:31:15.578Z,277.74
2019-06-26T12:32:16.013Z,275.61
2019-06-26T12:33:16.460Z,277.32
2019-06-26T12:34:16.916Z,277.07
2019-06-26T12:35:17.357Z,279.97
2019-06-26T12:36:17.804Z,277.79
2019-06-26T12:37:18.214Z,275.74
2019-06-26T12:38:18.692Z,283.45
2019-06-26T12:39:19.087Z,280.77
2019-06-26T12:40:19.529Z,279.33
2019-06-26T12:41:19.970Z,274.07
2019-06-26T12:42:20.371Z,280.10
2019-06-26T12:43:20.807Z,276.40
2019-06-26T12:44:21.267Z,278.07
2019-06-26T12:45:21.736Z,280.51
2019-06-26T12:46:22.213Z,278.28